Bush, Illinois
Current Conditions -  °F | °C
As of 3:52 AM on Friday 31 Oct 2014 (Local Time) from KMDH Reporting Station
Haze Haze  
Wind Chill: 47°   Ceiling: 4600
Heat Index: 47°   Visibility: 5mi
Dew Point: 45°   Wind: 0mph
Humidity: 93%   Direction: NA
Pressure: 30.03"   Gusts: NA
Location:  37.8209°N, 89.2055°W
Report Text: KMDH 310852Z AUTO 00000KT 5SM BR BKN046 BKN120 08/07 A3003 RMK AO2 SLP168 T00830072 55001
Loading
Personal Weather Stations






























Interactive Weather Map New forecast layout! Learn more

10-Day Weather Forecast

Advertisements
Track Severe Weather on mobile